Terminal Aerodrome Forecast
Issued by NWS

Current Version | Previous Version | Text Only | Print | Product List | Glossary On
Versions: 1 2 3 4 5 6 7 8 9 10 11 12 13 14 15 16
000
FTUS44 KMAF 031912 AAA
TAFCNM
TAF AMD
KCNM 031912Z 0319/0418 VRB04KT P6SM SCT050 BKN200
      TEMPO 0319/0323 VRB25G35KT 1SM +TSRA BKN030CB
     FM040000 08009KT P6SM SCT050 SCT120 OVC200 PROB30 0406/0412
      VRB20G30KT 3SM TSRA BKN040CB
     FM041200 12008KT P6SM SCT120 BKN200=

USA.gov is the U.S. government's official web portal to all federal, state and local government web resources and services.